sensor_id;sensor_type;location;lat;lon;timestamp;pressure;altitude;pressure_sealevel;temperature;humidity
79378;BME280;68959;53.132;17.984;2023-04-06T00:00:09;101837.63;;;-1.50;64.22
79378;BME280;68959;53.132;17.984;2023-04-06T00:02:57;101836.17;;;-1.45;63.65
79378;BME280;68959;53.132;17.984;2023-04-06T00:05:23;101836.62;;;-1.42;63.74
79378;BME280;68959;53.132;17.984;2023-04-06T00:07:50;101838.95;;;-1.40;63.29
79378;BME280;68959;53.132;17.984;2023-04-06T00:10:17;101832.58;;;-1.40;63.70
79378;BME280;68959;53.132;17.984;2023-04-06T00:12:43;101833.15;;;-1.40;64.33
79378;BME280;68959;53.132;17.984;2023-04-06T00:15:10;101838.19;;;-1.42;64.59
79378;BME280;68959;53.132;17.984;2023-04-06T00:17:37;101835.19;;;-1.44;65.04
79378;BME280;68959;53.132;17.984;2023-04-06T00:20:04;101837.79;;;-1.46;65.58
79378;BME280;68959;53.132;17.984;2023-04-06T00:22:33;101838.30;;;-1.49;65.41
79378;BME280;68959;53.132;17.984;2023-04-06T00:25:00;101837.55;;;-1.52;65.03
79378;BME280;68959;53.132;17.984;2023-04-06T00:27:26;101839.23;;;-1.56;64.66
79378;BME280;68959;53.132;17.984;2023-04-06T00:29:53;101837.39;;;-1.62;64.92
79378;BME280;68959;53.132;17.984;2023-04-06T00:32:20;101841.20;;;-1.66;65.16
79378;BME280;68959;53.132;17.984;2023-04-06T00:34:46;101836.81;;;-1.72;64.93
79378;BME280;68959;53.132;17.984;2023-04-06T00:37:13;101836.36;;;-1.76;65.27
79378;BME280;68959;53.132;17.984;2023-04-06T00:39:40;101837.98;;;-1.78;64.75
79378;BME280;68959;53.132;17.984;2023-04-06T00:42:10;101830.66;;;-1.79;64.78
79378;BME280;68959;53.132;17.984;2023-04-06T00:44:42;101832.52;;;-1.78;65.43
79378;BME280;68959;53.132;17.984;2023-04-06T00:47:08;101837.10;;;-1.76;64.88
79378;BME280;68959;53.132;17.984;2023-04-06T00:49:35;101837.79;;;-1.76;65.08
79378;BME280;68959;53.132;17.984;2023-04-06T00:52:02;101835.95;;;-1.76;65.41
79378;BME280;68959;53.132;17.984;2023-04-06T00:54:29;101838.94;;;-1.74;65.06
79378;BME280;68959;53.132;17.984;2023-04-06T00:56:57;101834.61;;;-1.74;65.89
79378;BME280;68959;53.132;17.984;2023-04-06T00:59:26;101840.48;;;-1.74;65.64
79378;BME280;68959;53.132;17.984;2023-04-06T01:01:53;101840.36;;;-1.76;66.20
79378;BME280;68959;53.132;17.984;2023-04-06T01:04:33;101838.52;;;-1.78;65.99
79378;BME280;68959;53.132;17.984;2023-04-06T01:07:01;101838.00;;;-1.81;65.96
79378;BME280;68959;53.132;17.984;2023-04-06T01:09:32;101834.64;;;-1.85;66.76
79378;BME280;68959;53.132;17.984;2023-04-06T01:12:01;101836.86;;;-1.89;66.08
79378;BME280;68959;53.132;17.984;2023-04-06T01:14:29;101835.02;;;-1.94;65.89
79378;BME280;68959;53.132;17.984;2023-04-06T01:16:59;101831.58;;;-1.99;66.05
79378;BME280;68959;53.132;17.984;2023-04-06T01:19:30;101838.25;;;-2.05;66.19
79378;BME280;68959;53.132;17.984;2023-04-06T01:21:57;101838.09;;;-2.10;66.20
79378;BME280;68959;53.132;17.984;2023-04-06T01:24:30;101829.83;;;-2.16;66.56
79378;BME280;68959;53.132;17.984;2023-04-06T01:27:02;101832.26;;;-2.18;66.11
79378;BME280;68959;53.132;17.984;2023-04-06T01:29:38;101832.05;;;-2.22;66.36
79378;BME280;68959;53.132;17.984;2023-04-06T01:32:08;101831.73;;;-2.24;66.25
79378;BME280;68959;53.132;17.984;2023-04-06T01:34:38;101831.02;;;-2.24;66.53
79378;BME280;68959;53.132;17.984;2023-04-06T01:37:05;101830.64;;;-2.27;66.76
79378;BME280;68959;53.132;17.984;2023-04-06T01:39:32;101824.64;;;-2.30;67.02
79378;BME280;68959;53.132;17.984;2023-04-06T01:42:00;101829.89;;;-2.34;66.85
79378;BME280;68959;53.132;17.984;2023-04-06T01:44:27;101826.73;;;-2.36;67.02
79378;BME280;68959;53.132;17.984;2023-04-06T01:47:03;101825.83;;;-2.40;67.49
79378;BME280;68959;53.132;17.984;2023-04-06T01:49:30;101825.80;;;-2.43;67.02
79378;BME280;68959;53.132;17.984;2023-04-06T01:51:57;101829.58;;;-2.42;67.01
79378;BME280;68959;53.132;17.984;2023-04-06T01:54:23;101829.12;;;-2.43;66.94
79378;BME280;68959;53.132;17.984;2023-04-06T01:57:10;101829.83;;;-2.45;67.09
79378;BME280;68959;53.132;17.984;2023-04-06T02:00:00;101829.01;;;-2.46;67.18
79378;BME280;68959;53.132;17.984;2023-04-06T02:02:39;101822.88;;;-2.48;67.17
79378;BME280;68959;53.132;17.984;2023-04-06T02:05:10;101828.20;;;-2.45;67.71
79378;BME280;68959;53.132;17.984;2023-04-06T02:07:37;101828.07;;;-2.45;67.29
79378;BME280;68959;53.132;17.984;2023-04-06T02:10:11;101826.17;;;-2.43;67.20
79378;BME280;68959;53.132;17.984;2023-04-06T02:12:38;101825.95;;;-2.39;67.23
79378;BME280;68959;53.132;17.984;2023-04-06T02:15:07;101820.27;;;-2.35;67.35
79378;BME280;68959;53.132;17.984;2023-04-06T02:17:34;101819.80;;;-2.31;67.50
79378;BME280;68959;53.132;17.984;2023-04-06T02:20:00;101820.70;;;-2.29;67.64
79378;BME280;68959;53.132;17.984;2023-04-06T02:22:27;101821.08;;;-2.27;67.11
79378;BME280;68959;53.132;17.984;2023-04-06T02:24:54;101819.92;;;-2.27;67.44
79378;BME280;68959;53.132;17.984;2023-04-06T02:27:20;101819.52;;;-2.26;67.32
79378;BME280;68959;53.132;17.984;2023-04-06T02:29:47;101816.21;;;-2.28;67.53
79378;BME280;68959;53.132;17.984;2023-04-06T02:32:14;101818.17;;;-2.29;67.38
79378;BME280;68959;53.132;17.984;2023-04-06T02:34:41;101818.86;;;-2.32;67.68
79378;BME280;68959;53.132;17.984;2023-04-06T02:37:08;101822.49;;;-2.36;68.22
79378;BME280;68959;53.132;17.984;2023-04-06T02:39:34;101824.23;;;-2.38;67.86
79378;BME280;68959;53.132;17.984;2023-04-06T02:42:01;101823.38;;;-2.40;67.73
79378;BME280;68959;53.132;17.984;2023-04-06T02:44:28;101823.17;;;-2.42;68.43
79378;BME280;68959;53.132;17.984;2023-04-06T02:46:54;101826.17;;;-2.43;68.68
79378;BME280;68959;53.132;17.984;2023-04-06T02:49:21;101826.00;;;-2.45;68.65
79378;BME280;68959;53.132;17.984;2023-04-06T02:51:49;101827.02;;;-2.42;68.62
79378;BME280;68959;53.132;17.984;2023-04-06T02:54:25;101826.72;;;-2.38;68.82
79378;BME280;68959;53.132;17.984;2023-04-06T02:56:51;101833.38;;;-2.34;68.96
79378;BME280;68959;53.132;17.984;2023-04-06T02:59:18;101836.76;;;-2.29;68.98
79378;BME280;68959;53.132;17.984;2023-04-06T03:01:53;101839.38;;;-2.21;68.53
79378;BME280;68959;53.132;17.984;2023-04-06T03:04:21;101836.87;;;-2.17;68.40
79378;BME280;68959;53.132;17.984;2023-04-06T03:06:50;101840.86;;;-2.14;68.81
79378;BME280;68959;53.132;17.984;2023-04-06T03:09:25;101839.59;;;-2.14;69.32
79378;BME280;68959;53.132;17.984;2023-04-06T03:11:53;101841.00;;;-2.17;69.02
79378;BME280;68959;53.132;17.984;2023-04-06T03:14:21;101838.86;;;-2.19;68.96
79378;BME280;68959;53.132;17.984;2023-04-06T03:16:49;101842.88;;;-2.22;69.15
79378;BME280;68959;53.132;17.984;2023-04-06T03:19:19;101844.80;;;-2.23;69.02
79378;BME280;68959;53.132;17.984;2023-04-06T03:21:45;101844.81;;;-2.21;69.24
79378;BME280;68959;53.132;17.984;2023-04-06T03:24:12;101848.67;;;-2.20;68.97
79378;BME280;68959;53.132;17.984;2023-04-06T03:26:41;101846.30;;;-2.20;68.75
79378;BME280;68959;53.132;17.984;2023-04-06T03:29:07;101844.15;;;-2.18;69.00
79378;BME280;68959;53.132;17.984;2023-04-06T03:31:35;101847.71;;;-2.17;69.62
79378;BME280;68959;53.132;17.984;2023-04-06T03:34:08;101841.23;;;-2.20;69.37
79378;BME280;68959;53.132;17.984;2023-04-06T03:36:35;101847.66;;;-2.19;69.18
79378;BME280;68959;53.132;17.984;2023-04-06T03:39:03;101843.39;;;-2.20;69.56
79378;BME280;68959;53.132;17.984;2023-04-06T03:41:32;101845.12;;;-2.19;69.88
79378;BME280;68959;53.132;17.984;2023-04-06T03:44:23;101845.32;;;-2.19;69.34
79378;BME280;68959;53.132;17.984;2023-04-06T03:46:49;101848.02;;;-2.17;69.45
79378;BME280;68959;53.132;17.984;2023-04-06T03:49:16;101847.48;;;-2.15;69.38
79378;BME280;68959;53.132;17.984;2023-04-06T03:51:45;101846.94;;;-2.15;69.22
79378;BME280;68959;53.132;17.984;2023-04-06T03:54:11;101847.79;;;-2.15;69.33
79378;BME280;68959;53.132;17.984;2023-04-06T03:56:38;101848.98;;;-2.16;69.31
79378;BME280;68959;53.132;17.984;2023-04-06T03:59:05;101847.23;;;-2.20;69.45
79378;BME280;68959;53.132;17.984;2023-04-06T04:01:32;101846.22;;;-2.24;69.99
79378;BME280;68959;53.132;17.984;2023-04-06T04:03:58;101847.11;;;-2.29;69.63
79378;BME280;68959;53.132;17.984;2023-04-06T04:06:25;101848.77;;;-2.35;70.33
79378;BME280;68959;53.132;17.984;2023-04-06T04:08:51;101850.16;;;-2.39;70.44
79378;BME280;68959;53.132;17.984;2023-04-06T04:11:18;101852.74;;;-2.43;70.42
79378;BME280;68959;53.132;17.984;2023-04-06T04:13:47;101859.20;;;-2.46;70.78
79378;BME280;68959;53.132;17.984;2023-04-06T04:16:14;101859.48;;;-2.49;70.69
79378;BME280;68959;53.132;17.984;2023-04-06T04:18:42;101861.73;;;-2.51;70.64
79378;BME280;68959;53.132;17.984;2023-04-06T04:21:09;101860.13;;;-2.53;71.20
79378;BME280;68959;53.132;17.984;2023-04-06T04:23:36;101864.51;;;-2.52;70.98
79378;BME280;68959;53.132;17.984;2023-04-06T04:26:03;101865.23;;;-2.48;71.11
79378;BME280;68959;53.132;17.984;2023-04-06T04:28:29;101865.09;;;-2.44;70.55
79378;BME280;68959;53.132;17.984;2023-04-06T04:30:56;101862.79;;;-2.38;70.08
79378;BME280;68959;53.132;17.984;2023-04-06T04:33:23;101862.65;;;-2.29;70.16
79378;BME280;68959;53.132;17.984;2023-04-06T04:35:50;101861.45;;;-2.23;70.17
79378;BME280;68959;53.132;17.984;2023-04-06T04:38:18;101859.56;;;-2.17;70.61
79378;BME280;68959;53.132;17.984;2023-04-06T04:40:50;101860.08;;;-2.11;70.29
79378;BME280;68959;53.132;17.984;2023-04-06T04:43:17;101860.29;;;-2.07;69.88
79378;BME280;68959;53.132;17.984;2023-04-06T04:45:44;101862.98;;;-2.02;70.31
79378;BME280;68959;53.132;17.984;2023-04-06T04:48:31;101864.48;;;-1.97;70.34
79378;BME280;68959;53.132;17.984;2023-04-06T04:51:01;101867.14;;;-1.90;69.90
79378;BME280;68959;53.132;17.984;2023-04-06T04:53:34;101866.77;;;-1.82;69.90
79378;BME280;68959;53.132;17.984;2023-04-06T04:56:05;101869.88;;;-1.75;69.95
79378;BME280;68959;53.132;17.984;2023-04-06T04:58:32;101869.11;;;-1.70;69.45
79378;BME280;68959;53.132;17.984;2023-04-06T05:00:59;101867.33;;;-1.65;70.16
79378;BME280;68959;53.132;17.984;2023-04-06T05:03:27;101871.05;;;-1.59;69.98
79378;BME280;68959;53.132;17.984;2023-04-06T05:05:59;101870.63;;;-1.51;69.13
79378;BME280;68959;53.132;17.984;2023-04-06T05:08:29;101872.11;;;-1.41;69.81
79378;BME280;68959;53.132;17.984;2023-04-06T05:10:56;101872.27;;;-1.31;69.64
79378;BME280;68959;53.132;17.984;2023-04-06T05:13:23;101872.90;;;-1.22;69.33
79378;BME280;68959;53.132;17.984;2023-04-06T05:15:50;101876.14;;;-1.12;69.04
79378;BME280;68959;53.132;17.984;2023-04-06T05:18:25;101873.60;;;-1.02;68.55
79378;BME280;68959;53.132;17.984;2023-04-06T05:20:52;101873.77;;;-0.95;68.46
79378;BME280;68959;53.132;17.984;2023-04-06T05:23:20;101873.30;;;-0.89;68.04
79378;BME280;68959;53.132;17.984;2023-04-06T05:25:47;101875.74;;;-0.82;67.95
79378;BME280;68959;53.132;17.984;2023-04-06T05:28:18;101879.75;;;-0.75;68.02
79378;BME280;68959;53.132;17.984;2023-04-06T05:30:45;101885.49;;;-0.63;67.98
79378;BME280;68959;53.132;17.984;2023-04-06T05:33:12;101881.91;;;-0.50;67.83
79378;BME280;68959;53.132;17.984;2023-04-06T05:35:59;101881.89;;;-0.40;67.84
79378;BME280;68959;53.132;17.984;2023-04-06T05:38:27;101880.49;;;-0.36;67.91
79378;BME280;68959;53.132;17.984;2023-04-06T05:40:55;101877.81;;;-0.33;67.78
79378;BME280;68959;53.132;17.984;2023-04-06T05:43:24;101880.17;;;-0.29;67.74
79378;BME280;68959;53.132;17.984;2023-04-06T05:45:54;101884.08;;;-0.17;67.61
79378;BME280;68959;53.132;17.984;2023-04-06T05:48:20;101875.29;;;-0.05;67.29
79378;BME280;68959;53.132;17.984;2023-04-06T05:50:50;101875.23;;;0.05;66.85
79378;BME280;68959;53.132;17.984;2023-04-06T05:53:18;101873.70;;;0.12;66.86
79378;BME280;68959;53.132;17.984;2023-04-06T05:55:51;101874.73;;;0.20;66.69
79378;BME280;68959;53.132;17.984;2023-04-06T05:58:18;101875.54;;;0.27;66.35
79378;BME280;68959;53.132;17.984;2023-04-06T06:00:45;101877.44;;;0.42;66.21
79378;BME280;68959;53.132;17.984;2023-04-06T06:03:14;101874.80;;;0.52;66.31
79378;BME280;68959;53.132;17.984;2023-04-06T06:05:42;101871.67;;;0.59;66.14
79378;BME280;68959;53.132;17.984;2023-04-06T06:08:13;101872.34;;;0.67;65.92
79378;BME280;68959;53.132;17.984;2023-04-06T06:10:39;101873.90;;;0.78;65.67
79378;BME280;68959;53.132;17.984;2023-04-06T06:13:07;101869.25;;;0.86;65.57
79378;BME280;68959;53.132;17.984;2023-04-06T06:15:34;101861.91;;;0.93;65.48
79378;BME280;68959;53.132;17.984;2023-04-06T06:18:02;101864.39;;;1.04;65.03
79378;BME280;68959;53.132;17.984;2023-04-06T06:20:30;101871.58;;;1.11;65.00
79378;BME280;68959;53.132;17.984;2023-04-06T06:22:59;101869.50;;;1.18;64.85
79378;BME280;68959;53.132;17.984;2023-04-06T06:25:25;101868.36;;;1.23;64.82
79378;BME280;68959;53.132;17.984;2023-04-06T06:27:52;101863.34;;;1.28;64.73
79378;BME280;68959;53.132;17.984;2023-04-06T06:30:19;101867.54;;;1.38;64.49
79378;BME280;68959;53.132;17.984;2023-04-06T06:32:46;101865.18;;;1.47;64.47
79378;BME280;68959;53.132;17.984;2023-04-06T06:35:13;101868.07;;;1.55;64.33
79378;BME280;68959;53.132;17.984;2023-04-06T06:37:40;101870.79;;;1.71;64.04
79378;BME280;68959;53.132;17.984;2023-04-06T06:40:09;101866.95;;;1.82;63.47
79378;BME280;68959;53.132;17.984;2023-04-06T06:42:37;101864.96;;;1.91;63.45
79378;BME280;68959;53.132;17.984;2023-04-06T06:45:14;101866.45;;;2.00;63.52
79378;BME280;68959;53.132;17.984;2023-04-06T06:47:42;101869.80;;;2.08;63.03
79378;BME280;68959;53.132;17.984;2023-04-06T06:50:11;101867.58;;;2.21;63.09
79378;BME280;68959;53.132;17.984;2023-04-06T06:52:37;101864.23;;;2.30;62.58
79378;BME280;68959;53.132;17.984;2023-04-06T06:55:05;101865.24;;;2.41;62.81
79378;BME280;68959;53.132;17.984;2023-04-06T06:57:31;101868.45;;;2.57;62.40
79378;BME280;68959;53.132;17.984;2023-04-06T06:59:58;101867.11;;;2.75;62.17
79378;BME280;68959;53.132;17.984;2023-04-06T07:02:27;101861.46;;;2.99;61.84
79378;BME280;68959;53.132;17.984;2023-04-06T07:04:53;101867.00;;;3.24;61.59
79378;BME280;68959;53.132;17.984;2023-04-06T07:07:20;101866.83;;;3.49;60.90
79378;BME280;68959;53.132;17.984;2023-04-06T07:09:47;101866.77;;;3.72;60.41
79378;BME280;68959;53.132;17.984;2023-04-06T07:12:13;101860.58;;;3.94;60.26
79378;BME280;68959;53.132;17.984;2023-04-06T07:14:40;101852.44;;;4.15;59.60
79378;BME280;68959;53.132;17.984;2023-04-06T07:17:07;101850.05;;;4.30;59.17
79378;BME280;68959;53.132;17.984;2023-04-06T07:19:34;101849.91;;;4.42;58.79
79378;BME280;68959;53.132;17.984;2023-04-06T07:22:00;101848.69;;;4.62;58.58
79378;BME280;68959;53.132;17.984;2023-04-06T07:24:29;101849.48;;;4.88;57.95
79378;BME280;68959;53.132;17.984;2023-04-06T07:26:55;101847.38;;;5.09;57.15
79378;BME280;68959;53.132;17.984;2023-04-06T07:29:23;101845.85;;;5.32;57.16
79378;BME280;68959;53.132;17.984;2023-04-06T07:31:50;101848.05;;;5.56;56.39
79378;BME280;68959;53.132;17.984;2023-04-06T07:34:17;101847.44;;;5.75;55.88
79378;BME280;68959;53.132;17.984;2023-04-06T07:36:44;101847.81;;;5.98;55.52
79378;BME280;68959;53.132;17.984;2023-04-06T07:39:11;101844.20;;;6.19;54.47
79378;BME280;68959;53.132;17.984;2023-04-06T07:41:38;101843.04;;;6.31;54.04
79378;BME280;68959;53.132;17.984;2023-04-06T07:44:05;101844.39;;;6.40;53.06
79378;BME280;68959;53.132;17.984;2023-04-06T07:46:32;101840.44;;;6.47;52.54
79378;BME280;68959;53.132;17.984;2023-04-06T07:48:59;101838.93;;;6.63;52.02
79378;BME280;68959;53.132;17.984;2023-04-06T07:51:30;101839.08;;;6.84;51.45
79378;BME280;68959;53.132;17.984;2023-04-06T07:53:57;101837.34;;;7.17;51.36
79378;BME280;68959;53.132;17.984;2023-04-06T07:56:25;101833.66;;;7.58;50.81
79378;BME280;68959;53.132;17.984;2023-04-06T07:58:52;101833.41;;;8.00;48.12
79378;BME280;68959;53.132;17.984;2023-04-06T08:01:21;101829.13;;;8.36;48.30
79378;BME280;68959;53.132;17.984;2023-04-06T08:03:48;101826.84;;;8.76;46.11
79378;BME280;68959;53.132;17.984;2023-04-06T08:06:16;101824.74;;;9.15;44.84
79378;BME280;68959;53.132;17.984;2023-04-06T08:08:43;101821.29;;;9.72;43.95
79378;BME280;68959;53.132;17.984;2023-04-06T08:11:09;101817.65;;;10.08;41.25
79378;BME280;68959;53.132;17.984;2023-04-06T08:13:36;101813.90;;;10.08;40.29
79378;BME280;68959;53.132;17.984;2023-04-06T08:16:03;101812.55;;;10.07;41.16
79378;BME280;68959;53.132;17.984;2023-04-06T08:18:30;101815.83;;;10.22;40.77
79378;BME280;68959;53.132;17.984;2023-04-06T08:20:57;101816.02;;;10.27;38.18
79378;BME280;68959;53.132;17.984;2023-04-06T08:23:23;101813.46;;;10.05;39.41
79378;BME280;68959;53.132;17.984;2023-04-06T08:25:50;101818.42;;;9.77;38.68
79378;BME280;68959;53.132;17.984;2023-04-06T08:28:20;101820.60;;;9.60;39.96
79378;BME280;68959;53.132;17.984;2023-04-06T08:30:47;101823.95;;;9.46;38.21
79378;BME280;68959;53.132;17.984;2023-04-06T08:33:14;101823.67;;;9.42;38.51
79378;BME280;68959;53.132;17.984;2023-04-06T08:35:42;101820.92;;;9.29;37.90
79378;BME280;68959;53.132;17.984;2023-04-06T08:38:08;101823.43;;;9.17;38.05
79378;BME280;68959;53.132;17.984;2023-04-06T08:40:36;101821.35;;;9.18;37.78
79378;BME280;68959;53.132;17.984;2023-04-06T08:43:06;101817.97;;;9.17;37.35
79378;BME280;68959;53.132;17.984;2023-04-06T08:45:35;101815.70;;;9.23;37.74
79378;BME280;68959;53.132;17.984;2023-04-06T08:48:02;101816.11;;;9.37;37.71
79378;BME280;68959;53.132;17.984;2023-04-06T08:50:29;101817.95;;;9.73;37.60
79378;BME280;68959;53.132;17.984;2023-04-06T08:52:56;101817.89;;;9.99;36.71
79378;BME280;68959;53.132;17.984;2023-04-06T08:55:23;101816.05;;;9.98;35.46
79378;BME280;68959;53.132;17.984;2023-04-06T08:57:51;101816.44;;;10.01;35.52
79378;BME280;68959;53.132;17.984;2023-04-06T09:00:21;101815.86;;;10.28;35.37
79378;BME280;68959;53.132;17.984;2023-04-06T09:02:49;101813.80;;;11.16;34.20
79378;BME280;68959;53.132;17.984;2023-04-06T09:05:17;101813.04;;;11.57;33.25
79378;BME280;68959;53.132;17.984;2023-04-06T09:07:44;101804.80;;;11.78;32.73
79378;BME280;68959;53.132;17.984;2023-04-06T09:10:11;101800.09;;;12.24;32.18
79378;BME280;68959;53.132;17.984;2023-04-06T09:12:38;101791.36;;;12.25;31.55
79378;BME280;68959;53.132;17.984;2023-04-06T09:15:05;101800.61;;;12.04;31.48
79378;BME280;68959;53.132;17.984;2023-04-06T09:17:32;101794.88;;;12.12;30.87
79378;BME280;68959;53.132;17.984;2023-04-06T09:20:03;101790.36;;;12.01;28.66
79378;BME280;68959;53.132;17.984;2023-04-06T09:22:36;101783.81;;;13.50;28.58
79378;BME280;68959;53.132;17.984;2023-04-06T09:25:04;101785.78;;;14.12;29.74
79378;BME280;68959;53.132;17.984;2023-04-06T09:27:38;101785.52;;;14.52;28.74
79378;BME280;68959;53.132;17.984;2023-04-06T09:30:07;101782.69;;;16.64;27.67
79378;BME280;68959;53.132;17.984;2023-04-06T09:32:49;101774.73;;;18.39;25.85
79378;BME280;68959;53.132;17.984;2023-04-06T09:35:16;101770.83;;;19.84;24.17
79378;BME280;68959;53.132;17.984;2023-04-06T09:37:43;101768.61;;;20.91;23.12
79378;BME280;68959;53.132;17.984;2023-04-06T09:40:11;101758.79;;;21.87;22.41
79378;BME280;68959;53.132;17.984;2023-04-06T09:42:40;101755.97;;;22.57;20.61
79378;BME280;68959;53.132;17.984;2023-04-06T09:45:08;101756.11;;;22.68;18.91
79378;BME280;68959;53.132;17.984;2023-04-06T09:47:36;101753.00;;;22.63;19.00
79378;BME280;68959;53.132;17.984;2023-04-06T09:50:04;101753.52;;;23.16;19.21
79378;BME280;68959;53.132;17.984;2023-04-06T09:52:33;101756.27;;;23.90;19.02
79378;BME280;68959;53.132;17.984;2023-04-06T09:55:02;101744.92;;;24.60;18.06
79378;BME280;68959;53.132;17.984;2023-04-06T09:57:34;101746.95;;;25.02;16.72
79378;BME280;68959;53.132;17.984;2023-04-06T10:00:08;101745.98;;;24.98;15.81
79378;BME280;68959;53.132;17.984;2023-04-06T10:02:58;101749.49;;;24.97;16.11
79378;BME280;68959;53.132;17.984;2023-04-06T10:07:54;101743.09;;;26.11;14.46
79378;BME280;68959;53.132;17.984;2023-04-06T10:10:22;101747.30;;;26.09;15.31
79378;BME280;68959;53.132;17.984;2023-04-06T10:12:49;101742.94;;;26.20;14.79
79378;BME280;68959;53.132;17.984;2023-04-06T10:15:16;101748.17;;;25.79;15.04
79378;BME280;68959;53.132;17.984;2023-04-06T10:17:44;101740.14;;;26.16;14.93
79378;BME280;68959;53.132;17.984;2023-04-06T10:20:24;101735.98;;;26.59;14.75
79378;BME280;68959;53.132;17.984;2023-04-06T10:23:05;101737.77;;;27.09;14.59
79378;BME280;68959;53.132;17.984;2023-04-06T10:25:33;101732.61;;;27.31;12.93
79378;BME280;68959;53.132;17.984;2023-04-06T10:28:02;101730.77;;;27.19;13.19
79378;BME280;68959;53.132;17.984;2023-04-06T10:30:32;101721.98;;;27.21;13.09
79378;BME280;68959;53.132;17.984;2023-04-06T10:32:59;101716.27;;;27.36;12.83
79378;BME280;68959;53.132;17.984;2023-04-06T10:35:37;101722.79;;;27.50;12.83
79378;BME280;68959;53.132;17.984;2023-04-06T10:38:05;101724.14;;;26.44;13.29
79378;BME280;68959;53.132;17.984;2023-04-06T10:40:32;101726.74;;;25.53;13.52
79378;BME280;68959;53.132;17.984;2023-04-06T10:43:34;101722.41;;;25.01;13.35
79378;BME280;68959;53.132;17.984;2023-04-06T10:46:05;101715.42;;;25.95;13.30
79378;BME280;68959;53.132;17.984;2023-04-06T10:48:44;101709.08;;;26.73;12.82
79378;BME280;68959;53.132;17.984;2023-04-06T10:51:17;101712.23;;;27.12;12.47
79378;BME280;68959;53.132;17.984;2023-04-06T10:53:46;101707.77;;;26.73;12.34
79378;BME280;68959;53.132;17.984;2023-04-06T10:56:15;101700.81;;;25.65;12.86
79378;BME280;68959;53.132;17.984;2023-04-06T10:58:50;101700.17;;;25.92;12.73
79378;BME280;68959;53.132;17.984;2023-04-06T11:01:19;101697.86;;;25.84;12.75
79378;BME280;68959;53.132;17.984;2023-04-06T11:03:54;101701.12;;;25.25;13.13
79378;BME280;68959;53.132;17.984;2023-04-06T11:06:25;101698.92;;;24.80;13.49
79378;BME280;68959;53.132;17.984;2023-04-06T11:08:54;101688.67;;;25.24;13.37
79378;BME280;68959;53.132;17.984;2023-04-06T11:11:24;101679.98;;;25.75;13.14
79378;BME280;68959;53.132;17.984;2023-04-06T11:13:57;101671.56;;;25.57;12.94
79378;BME280;68959;53.132;17.984;2023-04-06T11:16:29;101678.48;;;25.78;13.32
79378;BME280;68959;53.132;17.984;2023-04-06T11:19:01;101673.98;;;26.17;13.32
79378;BME280;68959;53.132;17.984;2023-04-06T11:24:16;101669.66;;;27.66;12.11
79378;BME280;68959;53.132;17.984;2023-04-06T11:29:12;101669.68;;;26.21;12.37
79378;BME280;68959;53.132;17.984;2023-04-06T11:31:40;101669.64;;;25.17;12.75
79378;BME280;68959;53.132;17.984;2023-04-06T11:34:20;101672.27;;;24.42;13.32
79378;BME280;68959;53.132;17.984;2023-04-06T11:36:53;101672.42;;;24.77;13.16
79378;BME280;68959;53.132;17.984;2023-04-06T11:39:22;101674.65;;;24.81;13.32
79378;BME280;68959;53.132;17.984;2023-04-06T11:41:50;101665.94;;;25.00;13.20
79378;BME280;68959;53.132;17.984;2023-04-06T11:47:03;101664.07;;;26.19;12.86
79378;BME280;68959;53.132;17.984;2023-04-06T11:49:31;101661.88;;;26.78;12.58
79378;BME280;68959;53.132;17.984;2023-04-06T11:51:59;101658.16;;;27.32;12.08
79378;BME280;68959;53.132;17.984;2023-04-06T11:56:57;101650.36;;;27.97;11.51
79378;BME280;68959;53.132;17.984;2023-04-06T11:59:23;101645.54;;;28.12;11.64
79378;BME280;68959;53.132;17.984;2023-04-06T12:01:50;101637.94;;;28.64;11.32
79378;BME280;68959;53.132;17.984;2023-04-06T12:04:19;101628.99;;;29.12;11.28
79378;BME280;68959;53.132;17.984;2023-04-06T12:06:46;101626.11;;;29.49;10.67
79378;BME280;68959;53.132;17.984;2023-04-06T12:09:12;101618.23;;;29.42;10.79
79378;BME280;68959;53.132;17.984;2023-04-06T12:11:39;101623.09;;;29.29;10.75
79378;BME280;68959;53.132;17.984;2023-04-06T12:14:07;101617.30;;;29.41;10.71
79378;BME280;68959;53.132;17.984;2023-04-06T12:16:34;101613.25;;;29.68;10.63
79378;BME280;68959;53.132;17.984;2023-04-06T12:19:01;101607.35;;;29.37;10.45
79378;BME280;68959;53.132;17.984;2023-04-06T12:21:28;101607.04;;;29.36;11.04
79378;BME280;68959;53.132;17.984;2023-04-06T12:23:57;101605.93;;;30.01;10.73
79378;BME280;68959;53.132;17.984;2023-04-06T12:26:24;101604.63;;;29.96;10.64
79378;BME280;68959;53.132;17.984;2023-04-06T12:28:51;101605.24;;;29.98;10.55
79378;BME280;68959;53.132;17.984;2023-04-06T12:31:19;101588.21;;;30.30;10.35
79378;BME280;68959;53.132;17.984;2023-04-06T12:33:46;101588.26;;;30.05;10.12
79378;BME280;68959;53.132;17.984;2023-04-06T12:36:15;101589.42;;;30.24;10.20
79378;BME280;68959;53.132;17.984;2023-04-06T12:38:48;101584.70;;;30.08;10.06
79378;BME280;68959;53.132;17.984;2023-04-06T12:41:15;101582.02;;;29.98;10.09
79378;BME280;68959;53.132;17.984;2023-04-06T12:43:43;101584.70;;;29.56;10.36
79378;BME280;68959;53.132;17.984;2023-04-06T12:46:10;101587.73;;;29.71;10.65
79378;BME280;68959;53.132;17.984;2023-04-06T12:48:37;101580.23;;;29.79;10.52
79378;BME280;68959;53.132;17.984;2023-04-06T12:51:05;101578.64;;;29.68;10.53
79378;BME280;68959;53.132;17.984;2023-04-06T12:53:33;101575.77;;;29.72;10.61
79378;BME280;68959;53.132;17.984;2023-04-06T12:56:01;101574.45;;;29.94;10.34
79378;BME280;68959;53.132;17.984;2023-04-06T12:58:28;101568.88;;;30.29;10.35
79378;BME280;68959;53.132;17.984;2023-04-06T13:00:57;101564.54;;;30.43;10.04
79378;BME280;68959;53.132;17.984;2023-04-06T13:03:29;101561.27;;;30.16;10.49